createdAt,value
2024-01-11T00:02:09.602Z,64.25
2024-01-11T00:04:42.076Z,64.80
2024-01-11T00:07:14.661Z,64.38
2024-01-11T00:09:47.047Z,64.47
2024-01-11T00:12:19.352Z,64.96
2024-01-11T00:14:51.792Z,65.26
2024-01-11T00:17:24.021Z,65.97
2024-01-11T00:19:56.209Z,66.09
2024-01-11T00:22:28.609Z,67.15
2024-01-11T00:25:00.631Z,67.14
2024-01-11T00:27:32.906Z,67.24
2024-01-11T00:30:06.622Z,67.08
2024-01-11T00:32:39.145Z,67.57
2024-01-11T00:35:11.685Z,66.94
2024-01-11T00:37:43.922Z,66.77
2024-01-11T00:40:16.362Z,66.81
2024-01-11T00:42:48.725Z,67.33
2024-01-11T00:45:21.073Z,67.53
2024-01-11T00:47:53.207Z,68.97
2024-01-11T00:50:25.381Z,68.64
2024-01-11T00:52:57.410Z,67.50
2024-01-11T00:55:29.730Z,66.99
2024-01-11T00:58:02.416Z,68.02
2024-01-11T01:00:34.589Z,68.00
2024-01-11T01:03:08.047Z,68.25
2024-01-11T01:05:40.306Z,68.13
2024-01-11T01:08:12.545Z,67.88
2024-01-11T01:10:44.641Z,68.28
2024-01-11T01:13:16.896Z,67.51
2024-01-11T01:15:49.532Z,66.96
2024-01-11T01:18:21.808Z,66.97
2024-01-11T01:20:53.861Z,67.64
2024-01-11T01:23:25.930Z,68.22
2024-01-11T01:25:57.929Z,68.47
2024-01-11T01:28:30.030Z,68.72
2024-01-11T01:31:02.543Z,68.64
2024-01-11T01:33:35.069Z,68.01
2024-01-11T01:36:10.110Z,67.87
2024-01-11T01:38:42.669Z,68.41
2024-01-11T01:41:15.092Z,67.50
2024-01-11T01:43:47.319Z,65.74
2024-01-11T01:46:25.366Z,65.11
2024-01-11T01:48:59.423Z,64.90
2024-01-11T01:51:34.080Z,65.01
2024-01-11T01:54:07.276Z,64.62
2024-01-11T01:56:39.657Z,64.63
2024-01-11T01:59:12.840Z,64.56
2024-01-11T02:01:45.357Z,63.99
2024-01-11T02:04:17.604Z,64.25
2024-01-11T02:06:50.726Z,64.58
2024-01-11T02:09:23.062Z,64.71
2024-01-11T02:11:55.551Z,64.84
2024-01-11T02:14:28.891Z,64.86
2024-01-11T02:17:01.954Z,64.77
2024-01-11T02:19:35.307Z,65.05
2024-01-11T02:22:15.082Z,65.07
2024-01-11T02:24:47.252Z,65.19
2024-01-11T02:27:19.344Z,65.39
2024-01-11T02:29:51.518Z,66.24
2024-01-11T02:32:24.227Z,67.58
2024-01-11T02:34:57.065Z,69.18
2024-01-11T02:37:29.750Z,69.44
2024-01-11T02:40:02.518Z,69.53
2024-01-11T02:42:34.516Z,69.94
2024-01-11T02:45:07.546Z,70.25
2024-01-11T02:47:40.369Z,70.32
2024-01-11T02:50:13.990Z,69.96
2024-01-11T02:52:46.341Z,70.13
2024-01-11T02:55:18.431Z,70.07
2024-01-11T02:57:50.738Z,71.46
2024-01-11T03:00:23.020Z,70.88
2024-01-11T03:02:55.129Z,70.30
2024-01-11T03:05:27.462Z,70.78
2024-01-11T03:07:59.861Z,70.57
2024-01-11T03:10:32.404Z,70.39
2024-01-11T03:13:04.717Z,70.57
2024-01-11T03:15:36.939Z,71.10
2024-01-11T03:18:09.480Z,71.61
2024-01-11T03:20:42.468Z,73.23
2024-01-11T03:23:15.027Z,74.27
2024-01-11T03:25:47.700Z,74.88
2024-01-11T03:28:19.796Z,74.64
2024-01-11T03:30:53.742Z,73.73
2024-01-11T03:33:26.073Z,72.97
2024-01-11T03:35:58.605Z,72.98
2024-01-11T03:38:30.716Z,73.21
2024-01-11T03:41:02.939Z,73.10
2024-01-11T03:43:35.092Z,74.36
2024-01-11T03:46:07.398Z,75.57
2024-01-11T03:48:39.776Z,75.27
2024-01-11T03:51:12.002Z,74.49
2024-01-11T03:53:44.219Z,74.22
2024-01-11T03:56:16.636Z,74.03
2024-01-11T03:58:48.764Z,74.44
2024-01-11T04:01:20.995Z,75.10
2024-01-11T04:03:53.376Z,75.77
2024-01-11T04:06:26.919Z,75.92
2024-01-11T04:08:59.073Z,76.12
2024-01-11T04:11:32.619Z,77.04
2024-01-11T04:14:04.661Z,76.92
2024-01-11T04:16:41.492Z,76.78
2024-01-11T04:19:14.017Z,76.98
2024-01-11T04:21:46.478Z,77.30
2024-01-11T04:24:18.809Z,76.47
2024-01-11T04:26:50.979Z,76.17
2024-01-11T04:29:23.041Z,76.14
2024-01-11T04:31:55.319Z,76.99
2024-01-11T04:34:27.487Z,76.35
2024-01-11T04:36:59.925Z,77.57
2024-01-11T04:39:33.322Z,77.46
2024-01-11T04:42:06.235Z,77.94
2024-01-11T04:44:38.315Z,78.69
2024-01-11T04:47:10.795Z,77.90
2024-01-11T04:49:43.221Z,78.43
2024-01-11T04:52:15.597Z,80.91
2024-01-11T04:54:49.376Z,80.58
2024-01-11T04:57:21.631Z,79.40
2024-01-11T04:59:54.388Z,79.67
2024-01-11T05:02:26.637Z,78.87
2024-01-11T05:04:58.923Z,79.38
2024-01-11T05:07:32.092Z,80.82
2024-01-11T05:10:05.065Z,80.46
2024-01-11T05:12:37.965Z,80.39
2024-01-11T05:15:11.476Z,80.09
2024-01-11T05:17:43.991Z,80.70
2024-01-11T05:20:16.906Z,80.08
2024-01-11T05:22:49.341Z,80.78
2024-01-11T05:25:21.550Z,81.57
2024-01-11T05:27:53.587Z,82.23
2024-01-11T05:30:28.422Z,82.03
2024-01-11T05:33:02.471Z,83.21
2024-01-11T05:35:34.640Z,82.59
2024-01-11T05:38:07.089Z,81.72
2024-01-11T05:40:39.314Z,82.89
2024-01-11T05:43:11.418Z,82.43
2024-01-11T05:45:47.873Z,81.61
2024-01-11T05:48:21.125Z,81.47
2024-01-11T05:50:53.197Z,81.47
2024-01-11T05:53:26.641Z,82.54
2024-01-11T05:55:58.793Z,81.63
2024-01-11T05:58:30.966Z,81.35
2024-01-11T06:01:03.126Z,81.90
2024-01-11T06:03:36.169Z,82.01
2024-01-11T06:06:09.931Z,83.60
2024-01-11T06:08:43.976Z,83.15
2024-01-11T06:11:16.341Z,82.11
2024-01-11T06:13:48.543Z,82.45
2024-01-11T06:16:20.801Z,82.49
2024-01-11T06:18:53.979Z,81.62
2024-01-11T06:21:26.139Z,82.43
2024-01-11T06:23:58.293Z,82.42
2024-01-11T06:26:30.543Z,82.30
2024-01-11T06:29:02.581Z,82.77
2024-01-11T06:31:34.799Z,82.86
2024-01-11T06:34:07.076Z,81.50
2024-01-11T06:36:39.152Z,81.64
2024-01-11T06:39:11.278Z,81.91
2024-01-11T06:41:43.570Z,82.17
2024-01-11T06:44:15.698Z,81.61
2024-01-11T06:46:47.836Z,81.44
2024-01-11T06:49:20.027Z,81.08
2024-01-11T06:51:52.917Z,81.24
2024-01-11T06:54:25.068Z,80.91
2024-01-11T06:56:57.164Z,81.04
2024-01-11T06:59:29.247Z,81.92
2024-01-11T07:02:01.347Z,82.08
2024-01-11T07:04:34.789Z,80.91
2024-01-11T07:07:07.478Z,81.50
2024-01-11T07:09:39.815Z,81.20
2024-01-11T07:12:12.853Z,81.71
2024-01-11T07:14:46.060Z,82.62
2024-01-11T07:17:18.868Z,83.47
2024-01-11T07:19:51.112Z,83.94
2024-01-11T07:22:23.286Z,83.40
2024-01-11T07:24:55.594Z,83.04
2024-01-11T07:27:27.817Z,82.58
2024-01-11T07:29:59.804Z,82.85
2024-01-11T07:32:31.913Z,82.18
2024-01-11T07:35:05.553Z,82.61
2024-01-11T07:37:40.710Z,82.79
2024-01-11T07:40:14.795Z,82.76
2024-01-11T07:42:48.139Z,83.17
2024-01-11T07:45:20.333Z,83.11
2024-01-11T07:47:52.570Z,82.34
2024-01-11T07:50:24.874Z,82.15
2024-01-11T07:52:57.442Z,82.31
2024-01-11T07:55:29.636Z,82.35
2024-01-11T07:58:01.858Z,82.83
2024-01-11T08:00:33.966Z,82.12
2024-01-11T08:03:06.616Z,82.58
2024-01-11T08:05:38.982Z,83.31
2024-01-11T08:08:11.770Z,83.44
2024-01-11T08:10:44.943Z,83.17
2024-01-11T08:13:19.511Z,83.74
2024-01-11T08:15:51.640Z,83.34
2024-01-11T08:18:23.783Z,83.01
2024-01-11T08:20:55.819Z,83.08
2024-01-11T08:23:28.030Z,83.67
2024-01-11T08:26:00.104Z,84.91
2024-01-11T08:28:33.388Z,84.56
2024-01-11T08:31:06.183Z,84.92
2024-01-11T08:33:38.996Z,85.52
2024-01-11T08:36:12.783Z,85.29
2024-01-11T08:38:45.074Z,85.11
2024-01-11T08:41:17.615Z,84.74
2024-01-11T08:43:49.848Z,86.41
2024-01-11T08:46:28.590Z,86.16
2024-01-11T08:49:01.061Z,85.26
2024-01-11T08:51:33.356Z,86.14
2024-01-11T08:54:10.103Z,85.97
2024-01-11T08:56:42.738Z,86.28
2024-01-11T08:59:15.245Z,86.25
2024-01-11T09:01:57.209Z,87.18
2024-01-11T09:04:35.243Z,87.30
2024-01-11T09:07:07.874Z,88.70
2024-01-11T09:09:44.859Z,88.53
2024-01-11T09:12:24.143Z,88.81
2024-01-11T09:14:56.982Z,89.07
2024-01-11T09:17:29.166Z,88.65
2024-01-11T09:20:01.552Z,88.04
2024-01-11T09:22:34.302Z,88.83
2024-01-11T09:25:08.282Z,89.18
2024-01-11T09:27:40.610Z,89.17
2024-01-11T09:30:13.903Z,89.33
2024-01-11T09:32:46.519Z,88.94
2024-01-11T09:35:19.301Z,89.18
2024-01-11T09:37:51.489Z,90.47
2024-01-11T09:40:23.880Z,91.09
2024-01-11T09:42:56.178Z,91.49
2024-01-11T09:45:28.441Z,91.50
2024-01-11T09:48:02.666Z,91.98
2024-01-11T09:50:35.184Z,92.49
2024-01-11T09:53:09.653Z,91.94
2024-01-11T09:55:40.253Z,92.25
2024-01-11T09:58:13.854Z,92.70
2024-01-11T10:00:47.211Z,92.81
2024-01-11T10:03:21.419Z,92.63
2024-01-11T10:05:57.731Z,93.25
2024-01-11T10:08:31.679Z,92.73
2024-01-11T10:11:04.459Z,92.21
2024-01-11T10:13:38.679Z,92.01
2024-01-11T10:16:14.943Z,91.37
2024-01-11T10:18:47.196Z,91.43
2024-01-11T10:21:20.232Z,91.70
2024-01-11T10:23:52.901Z,91.93
2024-01-11T10:26:25.169Z,92.49
2024-01-11T10:29:03.296Z,92.18
2024-01-11T10:31:37.624Z,92.36
2024-01-11T10:34:09.976Z,93.31
2024-01-11T10:36:42.573Z,93.84
2024-01-11T10:39:18.893Z,93.92
2024-01-11T10:42:02.466Z,94.46
2024-01-11T10:44:37.911Z,94.60
2024-01-11T10:47:12.495Z,94.07
2024-01-11T10:49:46.800Z,95.00
2024-01-11T10:52:23.682Z,95.33
2024-01-11T10:54:56.517Z,95.04
2024-01-11T10:57:29.726Z,94.92
2024-01-11T11:00:04.671Z,94.71
2024-01-11T11:02:38.694Z,95.06
2024-01-11T11:05:13.110Z,94.52
2024-01-11T11:07:46.316Z,94.56
2024-01-11T11:10:19.573Z,94.52
2024-01-11T11:12:53.827Z,94.98
2024-01-11T11:15:29.097Z,96.03
2024-01-11T11:18:02.217Z,95.80
2024-01-11T11:20:57.604Z,96.28
2024-01-11T11:23:31.202Z,96.19
2024-01-11T11:26:03.975Z,96.01
2024-01-11T11:28:37.732Z,96.23
2024-01-11T11:31:09.918Z,95.60
2024-01-11T11:33:42.954Z,95.94
2024-01-11T11:36:19.641Z,96.49
2024-01-11T11:39:01.318Z,96.29
2024-01-11T11:41:38.056Z,96.00
2024-01-11T11:44:14.449Z,96.08
2024-01-11T11:46:48.633Z,95.67
2024-01-11T11:49:22.679Z,95.41
2024-01-11T11:51:58.362Z,95.35
2024-01-11T11:54:31.832Z,95.21
2024-01-11T11:57:05.016Z,94.61
2024-01-11T11:59:37.707Z,95.02
2024-01-11T12:02:16.832Z,94.87
2024-01-11T12:04:51.501Z,94.28
2024-01-11T12:07:24.313Z,93.93
2024-01-11T12:09:56.902Z,93.94
2024-01-11T12:12:30.374Z,93.55
2024-01-11T12:15:02.713Z,93.52
2024-01-11T12:17:35.460Z,93.24
2024-01-11T12:20:10.986Z,93.59
2024-01-11T12:22:43.136Z,93.74
2024-01-11T12:25:15.410Z,93.58
2024-01-11T12:27:48.497Z,93.33
2024-01-11T12:30:25.026Z,93.11
2024-01-11T12:32:58.705Z,92.87
2024-01-11T12:35:32.337Z,92.70
2024-01-11T12:38:08.019Z,92.67
2024-01-11T12:40:43.096Z,93.06
2024-01-11T12:43:16.258Z,93.05
2024-01-11T12:45:48.340Z,93.11
2024-01-11T12:48:21.027Z,93.70
2024-01-11T12:51:05.747Z,94.15
2024-01-11T12:53:49.699Z,93.85
2024-01-11T12:56:24.154Z,93.85
2024-01-11T12:59:09.913Z,93.62
2024-01-11T13:01:40.806Z,94.16
2024-01-11T13:04:13.905Z,93.99
2024-01-11T13:06:46.202Z,94.53
2024-01-11T13:09:19.077Z,95.71
2024-01-11T13:11:52.465Z,96.34
2024-01-11T13:14:24.697Z,97.03
2024-01-11T13:16:56.858Z,97.43
2024-01-11T13:19:29.210Z,97.92
2024-01-11T13:22:01.599Z,97.63
2024-01-11T13:24:33.855Z,97.40
2024-01-11T13:27:07.360Z,97.71
2024-01-11T13:29:40.721Z,98.21
2024-01-11T13:32:14.616Z,98.51
2024-01-11T13:34:47.450Z,98.25
2024-01-11T13:37:19.630Z,98.43
2024-01-11T13:39:52.008Z,98.28
2024-01-11T13:42:27.284Z,98.53
2024-01-11T13:45:04.555Z,98.92
2024-01-11T13:47:37.141Z,98.77
2024-01-11T13:50:10.072Z,98.01
2024-01-11T13:52:43.668Z,97.82
2024-01-11T13:55:17.286Z,97.96
2024-01-11T13:57:49.748Z,98.13
2024-01-11T14:00:22.790Z,98.19
2024-01-11T14:02:57.302Z,97.78
2024-01-11T14:05:30.520Z,98.04
2024-01-11T14:08:06.874Z,97.85
2024-01-11T14:10:41.314Z,97.69
2024-01-11T14:13:14.552Z,97.65
2024-01-11T14:15:49.524Z,98.01
2024-01-11T14:18:22.339Z,98.26
2024-01-11T14:20:54.834Z,97.94
2024-01-11T14:23:27.118Z,97.52
2024-01-11T14:25:59.732Z,97.65
2024-01-11T14:28:32.114Z,97.91
2024-01-11T14:31:05.631Z,98.46
2024-01-11T14:33:38.818Z,98.84
2024-01-11T14:36:11.964Z,99.21
2024-01-11T14:38:44.779Z,99.35
2024-01-11T14:41:17.291Z,98.95
2024-01-11T14:43:55.908Z,98.74
2024-01-11T14:46:29.036Z,98.96
2024-01-11T14:49:01.860Z,98.88
2024-01-11T14:51:35.165Z,98.91
2024-01-11T14:54:08.547Z,99.12
2024-01-11T14:56:40.756Z,98.81
2024-01-11T14:59:12.863Z,98.23
2024-01-11T15:01:46.768Z,97.44
2024-01-11T15:04:19.608Z,97.24
2024-01-11T15:06:51.693Z,97.65
2024-01-11T15:09:24.523Z,97.93
2024-01-11T15:11:57.124Z,97.79
2024-01-11T15:14:29.792Z,97.60
2024-01-11T15:17:04.852Z,97.70
2024-01-11T15:19:37.370Z,98.17
2024-01-11T15:22:13.318Z,98.11
2024-01-11T15:24:45.791Z,97.77
2024-01-11T15:27:19.386Z,97.48
2024-01-11T15:29:53.282Z,97.37
2024-01-11T15:32:26.079Z,97.47
2024-01-11T15:34:59.858Z,97.31
2024-01-11T15:37:33.662Z,97.17
2024-01-11T15:40:06.977Z,96.97
2024-01-11T15:42:40.551Z,96.96
2024-01-11T15:45:13.325Z,96.89
2024-01-11T15:47:45.757Z,97.19
2024-01-11T15:50:17.931Z,97.62
2024-01-11T15:52:50.398Z,97.69
2024-01-11T15:55:22.572Z,97.60
2024-01-11T15:57:55.806Z,97.40
2024-01-11T16:00:28.361Z,97.67
2024-01-11T16:03:00.706Z,97.85
2024-01-11T16:05:34.540Z,97.39
2024-01-11T16:08:08.328Z,97.21
2024-01-11T16:10:40.814Z,97.28
2024-01-11T16:13:12.949Z,97.23
2024-01-11T16:15:45.472Z,96.90
2024-01-11T16:18:18.710Z,97.25
2024-01-11T16:20:52.297Z,97.60
2024-01-11T16:23:24.824Z,97.85
2024-01-11T16:25:57.348Z,97.64
2024-01-11T16:28:29.767Z,97.63
2024-01-11T16:31:01.851Z,97.70
2024-01-11T16:33:34.012Z,97.86
2024-01-11T16:36:06.956Z,98.22
2024-01-11T16:38:39.433Z,98.49
2024-01-11T16:41:12.420Z,97.67
2024-01-11T16:43:46.989Z,97.19
2024-01-11T16:46:23.766Z,96.89
2024-01-11T16:48:56.327Z,97.23
2024-01-11T16:51:28.980Z,97.51
2024-01-11T16:54:01.354Z,97.41
2024-01-11T16:56:35.105Z,97.61
2024-01-11T16:59:07.770Z,98.11
2024-01-11T17:01:40.623Z,97.95
2024-01-11T17:04:13.010Z,97.97
2024-01-11T17:06:45.679Z,97.69
2024-01-11T17:09:18.647Z,97.66
2024-01-11T17:11:52.633Z,97.78
2024-01-11T17:14:25.002Z,97.55
2024-01-11T17:16:57.218Z,97.95
2024-01-11T17:19:31.174Z,99.20
2024-01-11T17:22:04.085Z,98.97
2024-01-11T17:24:36.536Z,98.73
2024-01-11T17:27:09.945Z,98.49
2024-01-11T17:29:43.327Z,98.83
2024-01-11T17:32:16.441Z,98.99
2024-01-11T17:34:53.122Z,98.60
2024-01-11T17:37:26.994Z,99.03
2024-01-11T17:39:59.292Z,99.19
2024-01-11T17:42:31.286Z,99.33
2024-01-11T17:45:04.980Z,99.52
2024-01-11T17:47:37.540Z,99.42
2024-01-11T17:50:11.177Z,99.57
2024-01-11T17:52:45.871Z,99.88
2024-01-11T17:55:19.263Z,100.00
2024-01-11T17:57:51.651Z,100.00
2024-01-11T18:00:24.097Z,100.00
2024-01-11T18:02:56.604Z,100.00
2024-01-11T18:05:29.008Z,100.00
2024-01-11T18:08:01.637Z,100.00
2024-01-11T18:10:36.959Z,100.00
2024-01-11T18:13:09.022Z,100.00
2024-01-11T18:15:41.196Z,100.00
2024-01-11T18:18:13.372Z,100.00
2024-01-11T18:20:45.685Z,100.00
2024-01-11T18:23:21.307Z,100.00
2024-01-11T18:25:53.785Z,100.00
2024-01-11T18:28:26.549Z,100.00
2024-01-11T18:30:58.734Z,100.00
2024-01-11T18:33:30.966Z,100.00
2024-01-11T18:36:03.197Z,100.00
2024-01-11T18:38:36.162Z,99.97
2024-01-11T18:41:09.574Z,100.00
2024-01-11T18:43:41.782Z,100.00
2024-01-11T18:46:15.604Z,100.00
2024-01-11T18:48:49.617Z,100.00
2024-01-11T18:51:21.937Z,100.00
2024-01-11T18:53:54.454Z,100.00
2024-01-11T18:56:26.805Z,100.00
2024-01-11T18:58:59.552Z,100.00
2024-01-11T19:01:32.523Z,100.00
2024-01-11T19:04:04.854Z,99.95
2024-01-11T19:06:37.139Z,100.00
2024-01-11T19:09:09.429Z,100.00
2024-01-11T19:11:41.564Z,100.00
2024-01-11T19:14:16.695Z,99.88
2024-01-11T19:16:49.026Z,99.73
2024-01-11T19:19:21.755Z,99.49
2024-01-11T19:21:54.346Z,99.14
2024-01-11T19:24:26.696Z,98.75
2024-01-11T19:26:58.978Z,98.88
2024-01-11T19:29:33.525Z,99.27
2024-01-11T19:32:06.389Z,98.54
2024-01-11T19:34:38.896Z,97.86
2024-01-11T19:37:12.450Z,98.04
2024-01-11T19:39:45.066Z,98.47
2024-01-11T19:42:17.078Z,98.93
2024-01-11T19:44:49.381Z,98.88
2024-01-11T19:47:21.827Z,98.55
2024-01-11T19:49:54.025Z,98.83
2024-01-11T19:52:26.473Z,98.77
2024-01-11T19:54:58.624Z,98.84
2024-01-11T19:57:32.416Z,98.27
2024-01-11T20:00:05.769Z,97.89
2024-01-11T20:02:43.086Z,97.25
2024-01-11T20:05:15.699Z,97.09
2024-01-11T20:07:47.946Z,97.33
2024-01-11T20:10:20.316Z,96.88
2024-01-11T20:12:52.348Z,96.75
2024-01-11T20:15:24.756Z,96.52
2024-01-11T20:17:57.349Z,96.26
2024-01-11T20:20:29.471Z,95.86
2024-01-11T20:23:02.155Z,96.17
2024-01-11T20:25:34.424Z,96.35
2024-01-11T20:28:08.368Z,96.28
2024-01-11T20:30:40.852Z,95.39
2024-01-11T20:33:13.875Z,95.08
2024-01-11T20:35:46.548Z,95.27
2024-01-11T20:38:18.897Z,95.21
2024-01-11T20:40:58.913Z,95.38
2024-01-11T20:43:31.721Z,95.34
2024-01-11T20:46:04.312Z,95.60
2024-01-11T20:48:36.696Z,95.11
2024-01-11T20:51:10.683Z,94.84
2024-01-11T20:53:42.960Z,94.79
2024-01-11T20:56:16.006Z,94.48
2024-01-11T20:58:48.925Z,94.42
2024-01-11T21:01:21.317Z,94.44
2024-01-11T21:03:57.196Z,94.58
2024-01-11T21:06:29.422Z,94.28
2024-01-11T21:09:02.020Z,93.95
2024-01-11T21:11:34.661Z,93.59
2024-01-11T21:14:06.810Z,93.35
2024-01-11T21:16:39.401Z,93.65
2024-01-11T21:19:11.882Z,93.99
2024-01-11T21:21:45.567Z,94.25
2024-01-11T21:24:17.904Z,93.91
2024-01-11T21:26:51.267Z,93.84
2024-01-11T21:29:23.785Z,93.61
2024-01-11T21:31:56.402Z,93.32
2024-01-11T21:34:28.633Z,93.42
2024-01-11T21:37:01.008Z,93.82
2024-01-11T21:39:34.401Z,93.70
2024-01-11T21:42:07.001Z,93.22
2024-01-11T21:44:39.126Z,93.01
2024-01-11T21:47:11.450Z,93.03
2024-01-11T21:49:44.599Z,92.72
2024-01-11T21:52:16.696Z,92.65
2024-01-11T21:54:48.849Z,92.82
2024-01-11T21:57:21.076Z,92.47
2024-01-11T21:59:53.215Z,92.16
2024-01-11T22:02:25.353Z,92.18
2024-01-11T22:04:57.983Z,92.02
2024-01-11T22:07:30.313Z,91.40
2024-01-11T22:10:02.502Z,90.97
2024-01-11T22:12:34.503Z,90.71
2024-01-11T22:15:09.133Z,90.44
2024-01-11T22:17:41.929Z,90.06
2024-01-11T22:20:15.663Z,89.84
2024-01-11T22:22:47.928Z,89.67
2024-01-11T22:25:20.323Z,89.49
2024-01-11T22:27:52.588Z,89.34
2024-01-11T22:30:24.770Z,88.95
2024-01-11T22:32:57.058Z,88.71
2024-01-11T22:35:29.210Z,88.90
2024-01-11T22:38:01.253Z,89.00
2024-01-11T22:40:33.400Z,88.81
2024-01-11T22:43:05.727Z,88.78
2024-01-11T22:45:37.750Z,88.79
2024-01-11T22:48:10.760Z,88.55
2024-01-11T22:50:43.514Z,88.65
2024-01-11T22:53:15.774Z,88.57
2024-01-11T22:55:48.526Z,88.18
2024-01-11T22:58:20.911Z,88.12
2024-01-11T23:00:54.087Z,87.80
2024-01-11T23:03:26.781Z,87.42
2024-01-11T23:05:59.357Z,87.56
2024-01-11T23:08:31.858Z,87.76
2024-01-11T23:11:04.702Z,87.16
2024-01-11T23:13:39.131Z,86.85
2024-01-11T23:16:11.246Z,86.67
2024-01-11T23:18:45.114Z,85.84
2024-01-11T23:21:17.747Z,85.31
2024-01-11T23:23:50.667Z,85.06
2024-01-11T23:26:22.875Z,84.52
2024-01-11T23:28:54.878Z,83.95
2024-01-11T23:31:27.239Z,83.52
2024-01-11T23:33:59.880Z,83.27
2024-01-11T23:36:32.083Z,83.10
2024-01-11T23:39:04.370Z,82.73
2024-01-11T23:41:36.552Z,82.57
2024-01-11T23:44:08.912Z,82.58
2024-01-11T23:46:41.065Z,82.54
2024-01-11T23:49:13.334Z,82.96
2024-01-11T23:51:45.619Z,82.80
2024-01-11T23:54:17.944Z,82.46
2024-01-11T23:56:50.551Z,82.19
2024-01-11T23:59:22.779Z,82.51
